Terminal Aerodrome Forecast
Issued by NWS

Home | Current Version | Previous Version | Text Only | Print | Product List | Glossary On
Versions: 1 2 3 4 5 6 7 8 9 10 11 12 13 14
516
FTUS46 KPDT 292320
TAFALW
TAF
KALW 292320Z 3000/3024 27007KT P6SM FEW040 BKN100 OVC200
     FM300900 23009KT 5SM -SHRA OVC050
     FM301500 23015G25KT P6SM SCT050 BKN150
     FM302000 27015G25KT P6SM FEW050 SCT200=

USA.gov is the U.S. government's official web portal to all federal, state and local government web resources and services.